createdAt,value
2023-05-14T00:00:55.936Z,4.4
2023-05-14T00:01:56.560Z,3.6
2023-05-14T00:02:57.326Z,5.8
2023-05-14T00:03:57.826Z,3.1
2023-05-14T00:04:58.380Z,6.7
2023-05-14T00:05:58.954Z,2.9
2023-05-14T00:06:59.556Z,3.0
2023-05-14T00:08:00.177Z,2.8
2023-05-14T00:09:00.745Z,5.6
2023-05-14T00:10:01.345Z,3.5
2023-05-14T00:11:01.952Z,3.7
2023-05-14T00:12:02.554Z,3.0
2023-05-14T00:13:03.146Z,2.6
2023-05-14T00:14:03.790Z,3.0
2023-05-14T00:15:04.383Z,4.8
2023-05-14T00:16:05.081Z,3.1
2023-05-14T00:17:05.676Z,2.8
2023-05-14T00:18:06.337Z,2.7
2023-05-14T00:19:06.996Z,3.1
2023-05-14T00:20:07.576Z,2.7
2023-05-14T00:21:08.166Z,2.5
2023-05-14T00:22:08.777Z,12.0
2023-05-14T00:23:09.359Z,4.6
2023-05-14T00:24:09.972Z,3.2
2023-05-14T00:25:10.577Z,2.7
2023-05-14T00:26:11.264Z,17.5
2023-05-14T00:27:11.860Z,3.6
2023-05-14T00:28:12.473Z,2.9
2023-05-14T00:29:13.052Z,2.9
2023-05-14T00:30:13.655Z,4.0
2023-05-14T00:31:14.281Z,3.1
2023-05-14T00:32:14.863Z,4.9
2023-05-14T00:33:15.462Z,3.4
2023-05-14T00:34:16.068Z,3.7
2023-05-14T00:35:16.666Z,3.6
2023-05-14T00:36:17.263Z,3.6
2023-05-14T00:37:17.876Z,3.6
2023-05-14T00:38:18.471Z,3.0
2023-05-14T00:39:19.070Z,3.8
2023-05-14T00:40:19.664Z,3.4
2023-05-14T00:41:20.254Z,3.3
2023-05-14T00:42:20.852Z,3.6
2023-05-14T00:43:21.449Z,4.9
2023-05-14T00:44:22.045Z,3.9
2023-05-14T00:45:22.645Z,3.6
2023-05-14T00:46:23.302Z,5.6
2023-05-14T00:47:23.952Z,4.4
2023-05-14T00:48:24.531Z,5.0
2023-05-14T00:49:25.115Z,5.4
2023-05-14T00:50:25.890Z,5.9
2023-05-14T00:51:26.657Z,5.1
2023-05-14T00:52:27.264Z,4.1
2023-05-14T00:53:27.855Z,4.5
2023-05-14T00:54:28.464Z,4.5
2023-05-14T00:55:29.044Z,5.0
2023-05-14T00:56:30.110Z,3.7
2023-05-14T00:57:30.702Z,4.1
2023-05-14T00:58:31.297Z,3.7
2023-05-14T00:59:31.900Z,3.7
2023-05-14T01:00:32.495Z,3.8
2023-05-14T01:01:33.161Z,3.6
2023-05-14T01:02:33.768Z,4.0
2023-05-14T01:03:34.426Z,4.6
2023-05-14T01:04:35.018Z,4.3
2023-05-14T01:05:35.617Z,4.5
2023-05-14T01:06:36.210Z,4.1
2023-05-14T01:07:36.804Z,4.8
2023-05-14T01:08:37.413Z,4.6
2023-05-14T01:09:38.024Z,3.6
2023-05-14T01:10:38.607Z,6.0
2023-05-14T01:11:39.202Z,3.1
2023-05-14T01:12:39.797Z,6.0
2023-05-14T01:13:40.394Z,4.0
2023-05-14T01:14:40.993Z,5.3
2023-05-14T01:15:41.583Z,5.2
2023-05-14T01:16:42.244Z,3.7
2023-05-14T01:17:42.866Z,4.2
2023-05-14T01:18:43.501Z,4.3
2023-05-14T01:19:44.082Z,3.3
2023-05-14T01:20:44.644Z,3.6
2023-05-14T01:21:45.241Z,3.5
2023-05-14T01:22:45.832Z,3.3
2023-05-14T01:23:46.448Z,3.6
2023-05-14T01:24:47.049Z,3.8
2023-05-14T01:25:47.643Z,4.7
2023-05-14T01:26:48.233Z,3.6
2023-05-14T01:27:48.826Z,3.3
2023-05-14T01:28:49.420Z,3.4
2023-05-14T01:29:50.037Z,3.1
2023-05-14T01:30:50.648Z,3.5
2023-05-14T01:31:51.382Z,4.0
2023-05-14T01:32:52.025Z,3.3
2023-05-14T01:33:52.624Z,3.4
2023-05-14T01:34:53.290Z,3.4
2023-05-14T01:35:53.883Z,4.4
2023-05-14T01:36:54.508Z,3.3
2023-05-14T01:37:55.095Z,3.6
2023-05-14T01:38:55.688Z,3.5
2023-05-14T01:39:56.284Z,3.3
2023-05-14T01:40:56.899Z,4.4
2023-05-14T01:41:57.492Z,3.2
2023-05-14T01:42:58.111Z,3.6
2023-05-14T01:43:58.701Z,3.3
2023-05-14T01:44:59.295Z,3.2
2023-05-14T01:45:59.945Z,3.2
2023-05-14T01:47:00.501Z,3.0
2023-05-14T01:48:01.169Z,3.5
2023-05-14T01:49:01.716Z,3.1
2023-05-14T01:50:02.319Z,3.8
2023-05-14T01:51:02.925Z,3.2
2023-05-14T01:52:03.506Z,3.8
2023-05-14T01:53:04.096Z,3.2
2023-05-14T01:54:04.695Z,3.9
2023-05-14T01:55:05.307Z,5.3
2023-05-14T01:56:05.902Z,4.2
2023-05-14T01:57:06.498Z,4.5
2023-05-14T01:58:07.093Z,4.6
2023-05-14T01:59:07.688Z,5.1
2023-05-14T02:00:08.287Z,6.9
2023-05-14T02:01:08.935Z,4.8
2023-05-14T02:02:09.486Z,4.9
2023-05-14T02:03:10.120Z,4.6
2023-05-14T02:04:10.710Z,4.6
2023-05-14T02:05:11.299Z,4.8
2023-05-14T02:06:11.886Z,4.2
2023-05-14T02:07:12.478Z,5.2
2023-05-14T02:08:13.080Z,4.5
2023-05-14T02:09:13.669Z,4.3
2023-05-14T02:10:14.264Z,4.7
2023-05-14T02:11:14.871Z,4.4
2023-05-14T02:12:15.456Z,5.3
2023-05-14T02:13:16.049Z,8.7
2023-05-14T02:14:16.656Z,5.5
2023-05-14T02:15:17.255Z,6.5
2023-05-14T02:16:17.868Z,4.9
2023-05-14T02:17:18.457Z,4.5
2023-05-14T02:18:19.048Z,5.3
2023-05-14T02:19:19.638Z,5.2
2023-05-14T02:20:20.235Z,5.4
2023-05-14T02:21:20.843Z,7.2
2023-05-14T02:22:21.451Z,5.1
2023-05-14T02:23:31.002Z,5.4
2023-05-14T02:24:22.656Z,5.5
2023-05-14T02:25:23.270Z,10.0
2023-05-14T02:26:23.866Z,5.0
2023-05-14T02:27:24.460Z,5.5
2023-05-14T02:28:25.089Z,5.0
2023-05-14T02:29:25.671Z,5.6
2023-05-14T02:30:26.281Z,5.7
2023-05-14T02:31:26.933Z,6.2
2023-05-14T02:32:27.603Z,5.7
2023-05-14T02:33:28.175Z,6.4
2023-05-14T02:34:28.746Z,7.5
2023-05-14T02:35:29.344Z,5.5
2023-05-14T02:36:29.943Z,5.2
2023-05-14T02:37:30.535Z,6.9
2023-05-14T02:38:31.133Z,5.0
2023-05-14T02:39:31.726Z,5.2
2023-05-14T02:40:32.324Z,9.0
2023-05-14T02:41:32.949Z,5.2
2023-05-14T02:42:33.535Z,5.6
2023-05-14T02:43:34.132Z,5.2
2023-05-14T02:44:34.748Z,5.1
2023-05-14T02:45:35.365Z,5.5
2023-05-14T02:46:36.021Z,6.6
2023-05-14T02:47:38.209Z,5.6
2023-05-14T02:48:38.160Z,5.6
2023-05-14T02:49:38.751Z,5.6
2023-05-14T02:50:39.367Z,5.6
2023-05-14T02:51:39.972Z,7.7
2023-05-14T02:52:40.558Z,4.9
2023-05-14T02:53:41.164Z,4.7
2023-05-14T02:54:41.770Z,4.1
2023-05-14T02:55:42.371Z,4.1
2023-05-14T02:56:42.995Z,5.1
2023-05-14T02:57:43.576Z,4.4
2023-05-14T02:58:44.190Z,6.0
2023-05-14T02:59:44.803Z,5.1
2023-05-14T03:00:45.855Z,3.9
2023-05-14T03:01:46.470Z,7.8
2023-05-14T03:02:47.094Z,3.8
2023-05-14T03:03:48.108Z,4.1
2023-05-14T03:04:48.721Z,4.3
2023-05-14T03:05:49.316Z,4.6
2023-05-14T03:06:49.916Z,4.2
2023-05-14T03:07:50.515Z,4.5
2023-05-14T03:08:51.118Z,4.3
2023-05-14T03:09:51.703Z,4.7
2023-05-14T03:10:52.290Z,6.0
2023-05-14T03:11:52.883Z,4.3
2023-05-14T03:12:53.484Z,3.9
2023-05-14T03:13:54.083Z,6.3
2023-05-14T03:14:54.672Z,4.6
2023-05-14T03:15:55.267Z,4.3
2023-05-14T03:16:55.925Z,4.9
2023-05-14T03:17:56.496Z,4.6
2023-05-14T03:18:57.116Z,4.5
2023-05-14T03:19:57.697Z,5.0
2023-05-14T03:20:58.313Z,5.2
2023-05-14T03:21:58.931Z,4.9
2023-05-14T03:22:59.526Z,4.8
2023-05-14T03:24:00.137Z,5.3
2023-05-14T03:25:00.747Z,5.2
2023-05-14T03:26:01.340Z,5.2
2023-05-14T03:27:01.933Z,5.1
2023-05-14T03:28:02.562Z,5.5
2023-05-14T03:29:03.150Z,5.0
2023-05-14T03:30:03.746Z,5.1
2023-05-14T03:31:04.395Z,5.0
2023-05-14T03:32:04.957Z,5.3
2023-05-14T03:33:05.612Z,5.3
2023-05-14T03:34:06.172Z,5.6
2023-05-14T03:35:06.766Z,4.9
2023-05-14T03:36:07.383Z,5.8
2023-05-14T03:37:07.992Z,5.2
2023-05-14T03:38:08.575Z,5.2
2023-05-14T03:39:09.181Z,5.8
2023-05-14T03:40:09.795Z,5.8
2023-05-14T03:41:10.397Z,5.3
2023-05-14T03:42:11.011Z,5.1
2023-05-14T03:43:11.694Z,5.6
2023-05-14T03:44:12.238Z,4.7
2023-05-14T03:45:12.837Z,5.0
2023-05-14T03:46:13.455Z,5.1
2023-05-14T03:47:14.057Z,5.7
2023-05-14T03:48:14.708Z,5.4
2023-05-14T03:49:15.288Z,6.8
2023-05-14T03:50:15.887Z,5.3
2023-05-14T03:51:16.490Z,4.9
2023-05-14T03:52:17.090Z,5.7
2023-05-14T03:53:17.707Z,6.0
2023-05-14T03:54:18.311Z,5.2
2023-05-14T03:55:18.932Z,5.3
2023-05-14T03:56:19.531Z,4.9
2023-05-14T03:57:20.146Z,5.9
2023-05-14T03:58:20.750Z,4.8
2023-05-14T03:59:21.345Z,5.2
2023-05-14T04:00:22.096Z,5.3
2023-05-14T04:01:22.819Z,5.4
2023-05-14T04:02:23.570Z,5.1
2023-05-14T04:03:24.345Z,5.7
2023-05-14T04:04:25.149Z,6.3
2023-05-14T04:05:25.706Z,5.3
2023-05-14T04:06:26.307Z,5.0
2023-05-14T04:07:26.914Z,5.8
2023-05-14T04:08:27.508Z,5.8
2023-05-14T04:09:28.109Z,5.5
2023-05-14T04:10:28.710Z,5.5
2023-05-14T04:11:29.332Z,4.9
2023-05-14T04:12:29.927Z,6.3
2023-05-14T04:13:30.527Z,5.9
2023-05-14T04:14:31.124Z,5.7
2023-05-14T04:15:31.791Z,5.6
2023-05-14T04:16:32.405Z,5.9
2023-05-14T04:17:34.563Z,5.6
2023-05-14T04:18:33.628Z,10.4
2023-05-14T04:19:34.251Z,5.1
2023-05-14T04:20:34.832Z,6.6
2023-05-14T04:21:35.430Z,5.6
2023-05-14T04:22:36.035Z,5.2
2023-05-14T04:23:36.633Z,5.2
2023-05-14T04:24:37.231Z,5.5
2023-05-14T04:25:37.830Z,4.9
2023-05-14T04:26:38.433Z,5.0
2023-05-14T04:27:39.051Z,5.3
2023-05-14T04:28:39.649Z,5.8
2023-05-14T04:29:40.248Z,5.5
2023-05-14T04:30:40.874Z,4.9
2023-05-14T04:31:41.524Z,5.0
2023-05-14T04:32:42.162Z,5.4
2023-05-14T04:33:42.736Z,5.1
2023-05-14T04:34:43.328Z,5.5
2023-05-14T04:35:43.945Z,5.4
2023-05-14T04:36:44.542Z,5.4
2023-05-14T04:37:45.144Z,5.0
2023-05-14T04:38:45.749Z,4.8
2023-05-14T04:39:46.343Z,5.4
2023-05-14T04:40:46.940Z,5.1
2023-05-14T04:41:47.540Z,4.9
2023-05-14T04:42:48.191Z,5.1
2023-05-14T04:43:48.790Z,5.6
2023-05-14T04:44:49.388Z,5.8
2023-05-14T04:45:50.010Z,6.9
2023-05-14T04:46:50.598Z,5.9
2023-05-14T04:47:51.303Z,5.3
2023-05-14T04:48:51.933Z,4.4
2023-05-14T04:49:52.556Z,4.5
2023-05-14T04:50:53.220Z,5.1
2023-05-14T04:51:53.808Z,6.7
2023-05-14T04:52:54.410Z,8.5
2023-05-14T04:53:55.014Z,4.6
2023-05-14T04:54:55.611Z,5.2
2023-05-14T04:55:56.210Z,5.1
2023-05-14T04:56:56.808Z,5.9
2023-05-14T04:57:57.410Z,5.5
2023-05-14T04:58:58.029Z,4.8
2023-05-14T04:59:58.645Z,4.9
2023-05-14T05:00:59.285Z,4.8
2023-05-14T05:01:59.863Z,4.8
2023-05-14T05:03:00.702Z,6.3
2023-05-14T05:04:01.390Z,5.2
2023-05-14T05:05:01.945Z,4.9
2023-05-14T05:06:02.563Z,5.2
2023-05-14T05:07:03.159Z,5.1
2023-05-14T05:08:03.757Z,5.2
2023-05-14T05:09:04.380Z,4.6
2023-05-14T05:10:04.983Z,4.6
2023-05-14T05:11:05.598Z,5.1
2023-05-14T05:12:06.214Z,5.0
2023-05-14T05:13:06.797Z,4.7
2023-05-14T05:14:07.407Z,5.3
2023-05-14T05:15:08.023Z,4.9
2023-05-14T05:16:08.654Z,5.0
2023-05-14T05:17:09.244Z,4.8
2023-05-14T05:18:09.859Z,5.3
2023-05-14T05:19:10.500Z,5.3
2023-05-14T05:20:11.091Z,4.4
2023-05-14T05:21:11.657Z,4.6
2023-05-14T05:22:12.255Z,5.2
2023-05-14T05:23:12.859Z,5.4
2023-05-14T05:24:13.478Z,4.6
2023-05-14T05:25:14.081Z,5.0
2023-05-14T05:26:14.693Z,5.0
2023-05-14T05:27:15.295Z,4.8
2023-05-14T05:28:15.891Z,4.4
2023-05-14T05:29:16.493Z,4.6
2023-05-14T05:30:17.092Z,4.0
2023-05-14T05:31:19.635Z,5.3
2023-05-14T05:32:19.289Z,4.5
2023-05-14T05:33:19.891Z,4.0
2023-05-14T05:34:20.494Z,3.7
2023-05-14T05:35:21.129Z,3.8
2023-05-14T05:36:21.717Z,4.8
2023-05-14T05:37:22.315Z,3.8
2023-05-14T05:38:22.916Z,3.4
2023-05-14T05:39:23.529Z,8.6
2023-05-14T05:40:24.369Z,3.1
2023-05-14T05:41:25.102Z,3.7
2023-05-14T05:42:25.694Z,3.7
2023-05-14T05:43:26.291Z,3.4
2023-05-14T05:44:26.892Z,3.2
2023-05-14T05:45:27.494Z,3.1
2023-05-14T05:46:28.131Z,3.3
2023-05-14T05:47:28.745Z,3.5
2023-05-14T05:48:29.296Z,2.7
2023-05-14T05:49:29.895Z,2.9
2023-05-14T05:50:30.503Z,2.7
2023-05-14T05:51:31.119Z,3.2
2023-05-14T05:52:31.722Z,2.4
2023-05-14T05:53:32.323Z,3.8
2023-05-14T05:54:32.921Z,5.9
2023-05-14T05:55:33.535Z,3.6
2023-05-14T05:56:34.123Z,2.8
2023-05-14T05:57:34.731Z,4.2
2023-05-14T05:58:35.321Z,5.0
2023-05-14T05:59:35.926Z,3.2
2023-05-14T06:00:36.531Z,4.4
2023-05-14T06:01:37.239Z,3.6
2023-05-14T06:02:37.943Z,7.4
2023-05-14T06:03:38.662Z,2.8
2023-05-14T06:04:39.268Z,2.8
2023-05-14T06:05:39.885Z,3.0
2023-05-14T06:06:40.451Z,3.2
2023-05-14T06:07:41.071Z,2.7
2023-05-14T06:08:41.674Z,2.7
2023-05-14T06:09:42.279Z,3.5
2023-05-14T06:10:42.873Z,2.5
2023-05-14T06:11:43.669Z,3.0
2023-05-14T06:12:44.221Z,4.3
2023-05-14T06:13:44.819Z,3.2
2023-05-14T06:14:45.431Z,2.9
2023-05-14T06:15:46.050Z,2.5
2023-05-14T06:16:46.707Z,2.6
2023-05-14T06:17:47.426Z,3.2
2023-05-14T06:18:48.028Z,2.8
2023-05-14T06:19:48.628Z,2.6
2023-05-14T06:20:49.198Z,3.1
2023-05-14T06:21:49.797Z,2.8
2023-05-14T06:22:50.408Z,3.6
2023-05-14T06:23:51.002Z,2.8
2023-05-14T06:24:51.604Z,2.9
2023-05-14T06:25:52.224Z,2.8
2023-05-14T06:26:52.832Z,2.7
2023-05-14T06:27:53.451Z,2.8
2023-05-14T06:28:54.051Z,2.4
2023-05-14T06:29:54.654Z,3.1
2023-05-14T06:30:55.263Z,2.7
2023-05-14T06:31:55.885Z,2.8
2023-05-14T06:32:56.493Z,2.9
2023-05-14T06:33:57.081Z,2.8
2023-05-14T06:34:57.703Z,3.2
2023-05-14T06:35:58.307Z,2.8
2023-05-14T06:36:58.928Z,2.8
2023-05-14T06:37:59.532Z,2.8
2023-05-14T06:39:00.137Z,2.9
2023-05-14T06:40:00.737Z,2.6
2023-05-14T06:41:01.396Z,2.7
2023-05-14T06:42:01.987Z,3.1
2023-05-14T06:43:02.588Z,3.1
2023-05-14T06:44:03.186Z,2.7
2023-05-14T06:45:03.792Z,2.4
2023-05-14T06:46:04.394Z,2.3
2023-05-14T06:47:05.002Z,2.6
2023-05-14T06:48:05.646Z,2.3
2023-05-14T06:49:06.267Z,3.0
2023-05-14T06:50:07.549Z,2.5
2023-05-14T06:51:07.461Z,2.4
2023-05-14T06:52:08.065Z,2.7
2023-05-14T06:53:08.664Z,2.6
2023-05-14T06:54:09.275Z,2.4
2023-05-14T06:55:09.873Z,2.8
2023-05-14T06:56:10.474Z,2.1
2023-05-14T06:57:11.103Z,2.7
2023-05-14T06:58:11.697Z,2.6
2023-05-14T06:59:12.316Z,5.2
2023-05-14T07:00:12.924Z,2.8
2023-05-14T07:01:13.580Z,2.3
2023-05-14T07:02:14.150Z,2.6
2023-05-14T07:03:14.746Z,4.9
2023-05-14T07:04:15.364Z,2.2
2023-05-14T07:05:15.992Z,3.1
2023-05-14T07:06:16.600Z,2.6
2023-05-14T07:07:17.213Z,2.6
2023-05-14T07:08:17.837Z,2.4
2023-05-14T07:09:18.471Z,2.7
2023-05-14T07:10:19.074Z,2.4
2023-05-14T07:11:19.678Z,4.7
2023-05-14T07:12:20.295Z,2.6
2023-05-14T07:13:20.900Z,3.1
2023-05-14T07:14:21.522Z,2.6
2023-05-14T07:15:22.128Z,3.3
2023-05-14T07:16:22.743Z,3.0
2023-05-14T07:17:23.568Z,6.5
2023-05-14T07:18:24.200Z,2.7
2023-05-14T07:19:24.798Z,2.5
2023-05-14T07:20:25.615Z,3.2
2023-05-14T07:21:26.015Z,2.4
2023-05-14T07:22:26.619Z,2.5
2023-05-14T07:23:27.220Z,2.8
2023-05-14T07:24:27.823Z,2.4
2023-05-14T07:25:28.457Z,2.5
2023-05-14T07:26:29.150Z,3.5
2023-05-14T07:27:29.754Z,2.6
2023-05-14T07:28:30.377Z,3.1
2023-05-14T07:29:30.977Z,3.0
2023-05-14T07:30:31.589Z,4.4
2023-05-14T07:31:32.417Z,2.7
2023-05-14T07:32:33.028Z,2.8
2023-05-14T07:33:33.625Z,3.0
2023-05-14T07:34:34.246Z,2.9
2023-05-14T07:35:34.861Z,2.9
2023-05-14T07:36:35.447Z,2.8
2023-05-14T07:37:36.052Z,2.8
2023-05-14T07:38:36.652Z,2.8
2023-05-14T07:39:37.254Z,2.6
2023-05-14T07:40:37.851Z,3.1
2023-05-14T07:41:38.457Z,2.8
2023-05-14T07:42:39.079Z,2.3
2023-05-14T07:43:39.680Z,2.8
2023-05-14T07:44:40.286Z,2.6
2023-05-14T07:45:40.888Z,2.9
2023-05-14T07:46:41.486Z,2.9
2023-05-14T07:47:42.167Z,3.1
2023-05-14T07:48:42.829Z,2.9
2023-05-14T07:49:43.448Z,2.3
2023-05-14T07:50:44.050Z,2.5
2023-05-14T07:51:44.672Z,3.0
2023-05-14T07:52:45.279Z,2.4
2023-05-14T07:53:45.881Z,2.9
2023-05-14T07:54:47.473Z,2.7
2023-05-14T07:55:48.078Z,2.7
2023-05-14T07:56:48.682Z,2.9
2023-05-14T07:57:49.284Z,2.5
2023-05-14T07:58:49.887Z,2.6
2023-05-14T07:59:50.485Z,2.4
2023-05-14T08:00:51.096Z,3.4
2023-05-14T08:01:51.750Z,2.9
2023-05-14T08:02:52.649Z,2.6
2023-05-14T08:03:53.537Z,3.0
2023-05-14T08:04:54.197Z,2.9
2023-05-14T08:05:54.801Z,2.6
2023-05-14T08:06:55.402Z,2.6
2023-05-14T08:07:56.002Z,2.5
2023-05-14T08:08:56.604Z,2.7
2023-05-14T08:09:57.205Z,4.0
2023-05-14T08:10:57.844Z,5.6
2023-05-14T08:11:58.407Z,4.8
2023-05-14T08:12:59.025Z,5.3
2023-05-14T08:13:59.612Z,2.6
2023-05-14T08:15:00.245Z,2.4
2023-05-14T08:16:00.848Z,2.4
2023-05-14T08:17:01.445Z,2.4
2023-05-14T08:18:02.041Z,2.3
2023-05-14T08:19:02.714Z,3.1
2023-05-14T08:20:03.296Z,2.5
2023-05-14T08:21:04.048Z,2.9
2023-05-14T08:22:04.511Z,2.3
2023-05-14T08:23:05.140Z,2.8
2023-05-14T08:24:05.758Z,2.4
2023-05-14T08:25:06.413Z,2.3
2023-05-14T08:26:07.008Z,2.9
2023-05-14T08:27:07.625Z,2.5
2023-05-14T08:28:08.216Z,3.2
2023-05-14T08:29:10.446Z,2.6
2023-05-14T08:30:10.414Z,2.7
2023-05-14T08:31:11.041Z,2.3
2023-05-14T08:32:19.756Z,2.6
2023-05-14T08:33:12.265Z,2.8
2023-05-14T08:34:12.840Z,2.2
2023-05-14T08:35:13.442Z,2.4
2023-05-14T08:36:14.071Z,2.5
2023-05-14T08:37:14.687Z,2.2
2023-05-14T08:38:15.297Z,4.4
2023-05-14T08:39:15.899Z,2.5
2023-05-14T08:40:16.533Z,2.6
2023-05-14T08:41:17.130Z,2.7
2023-05-14T08:42:17.724Z,4.9
2023-05-14T08:43:18.327Z,2.1
2023-05-14T08:44:18.928Z,2.2
2023-05-14T08:45:19.537Z,2.2
2023-05-14T08:46:20.137Z,3.3
2023-05-14T08:47:20.739Z,2.0
2023-05-14T08:48:21.432Z,2.3
2023-05-14T08:49:22.010Z,1.8
2023-05-14T08:50:23.585Z,3.6
2023-05-14T08:51:24.224Z,4.3
2023-05-14T08:52:24.824Z,1.9
2023-05-14T08:53:25.431Z,1.8
2023-05-14T08:54:26.029Z,2.2
2023-05-14T08:55:26.640Z,2.2
2023-05-14T08:56:27.253Z,1.9
2023-05-14T08:57:27.867Z,2.5
2023-05-14T08:58:28.458Z,1.5
2023-05-14T08:59:29.060Z,1.9
2023-05-14T09:00:29.661Z,2.1
2023-05-14T09:01:30.269Z,2.3
2023-05-14T09:02:30.879Z,2.1
2023-05-14T09:03:31.540Z,2.9
2023-05-14T09:04:32.084Z,2.2
2023-05-14T09:05:32.706Z,2.0
2023-05-14T09:06:33.306Z,2.1
2023-05-14T09:07:33.911Z,2.3
2023-05-14T09:08:34.578Z,2.1
2023-05-14T09:09:35.181Z,1.9
2023-05-14T09:10:35.788Z,3.9
2023-05-14T09:11:36.388Z,2.3
2023-05-14T09:12:36.987Z,2.1
2023-05-14T09:13:37.592Z,2.0
2023-05-14T09:14:38.196Z,2.0
2023-05-14T09:15:38.796Z,3.5
2023-05-14T09:16:39.455Z,2.4
2023-05-14T09:17:40.073Z,2.3
2023-05-14T09:18:40.714Z,2.1
2023-05-14T09:19:41.255Z,2.0
2023-05-14T09:20:41.875Z,2.5
2023-05-14T09:21:42.481Z,2.3
2023-05-14T09:22:43.083Z,2.3
2023-05-14T09:23:43.687Z,2.3
2023-05-14T09:24:44.287Z,5.0
2023-05-14T09:25:44.888Z,2.4
2023-05-14T09:26:45.491Z,2.0
2023-05-14T09:27:46.104Z,2.2
2023-05-14T09:28:46.702Z,2.6
2023-05-14T09:29:47.304Z,4.2
2023-05-14T09:30:47.928Z,2.2
2023-05-14T09:31:48.563Z,2.4
2023-05-14T09:32:49.177Z,1.8
2023-05-14T09:33:49.737Z,1.6
2023-05-14T09:34:50.358Z,3.4
2023-05-14T09:35:50.964Z,1.7
2023-05-14T09:36:51.563Z,1.9
2023-05-14T09:37:52.169Z,2.6
2023-05-14T09:38:52.767Z,3.8
2023-05-14T09:39:53.369Z,1.5
2023-05-14T09:40:53.975Z,4.6
2023-05-14T09:41:54.577Z,1.5
2023-05-14T09:42:55.197Z,1.7
2023-05-14T09:43:55.798Z,1.4
2023-05-14T09:44:56.396Z,1.5
2023-05-14T09:45:57.016Z,1.1
2023-05-14T09:46:57.632Z,3.4
2023-05-14T09:47:58.349Z,1.7
2023-05-14T09:48:58.998Z,2.8
2023-05-14T09:49:59.601Z,1.3
2023-05-14T09:51:00.575Z,1.6
2023-05-14T09:52:01.801Z,1.4
2023-05-14T09:53:02.401Z,1.4
2023-05-14T09:54:03.019Z,1.7
2023-05-14T09:55:03.627Z,3.2
2023-05-14T09:56:04.238Z,1.4
2023-05-14T09:57:04.855Z,1.4
2023-05-14T09:58:05.458Z,1.2
2023-05-14T09:59:06.070Z,1.5
2023-05-14T10:00:06.703Z,1.4
2023-05-14T10:01:07.373Z,1.4
2023-05-14T10:02:07.946Z,1.1
2023-05-14T10:03:08.593Z,1.3
2023-05-14T10:04:09.180Z,1.6
2023-05-14T10:05:09.854Z,1.4
2023-05-14T10:06:10.430Z,1.6
2023-05-14T10:07:11.044Z,1.6
2023-05-14T10:08:11.652Z,1.8
2023-05-14T10:09:12.258Z,1.5
2023-05-14T10:10:12.877Z,1.6
2023-05-14T10:11:13.484Z,2.1
2023-05-14T10:12:14.101Z,2.3
2023-05-14T10:13:14.708Z,2.2
2023-05-14T10:14:15.325Z,1.7
2023-05-14T10:15:15.927Z,1.5
2023-05-14T10:16:16.559Z,1.9
2023-05-14T10:17:17.246Z,1.6
2023-05-14T10:18:17.871Z,1.7
2023-05-14T10:19:18.537Z,1.7
2023-05-14T10:20:19.163Z,2.5
2023-05-14T10:21:19.757Z,1.8
2023-05-14T10:22:20.362Z,1.9
2023-05-14T10:23:20.966Z,1.9
2023-05-14T10:24:21.570Z,1.8
2023-05-14T10:25:22.169Z,1.7
2023-05-14T10:26:24.074Z,1.7
2023-05-14T10:27:24.370Z,1.7
2023-05-14T10:28:24.974Z,2.9
2023-05-14T10:29:25.571Z,2.7
2023-05-14T10:30:26.397Z,1.4
2023-05-14T10:31:27.140Z,2.3
2023-05-14T10:32:27.753Z,1.7
2023-05-14T10:33:28.324Z,1.8
2023-05-14T10:34:28.926Z,1.6
2023-05-14T10:35:29.557Z,1.9
2023-05-14T10:36:30.135Z,1.6
2023-05-14T10:37:30.735Z,1.4
2023-05-14T10:38:31.357Z,1.7
2023-05-14T10:39:31.962Z,1.8
2023-05-14T10:40:32.563Z,1.3
2023-05-14T10:41:33.166Z,2.5
2023-05-14T10:42:33.793Z,1.7
2023-05-14T10:43:34.393Z,1.3
2023-05-14T10:44:34.997Z,2.2
2023-05-14T10:45:35.597Z,1.4
2023-05-14T10:46:36.217Z,4.9
2023-05-14T10:47:36.861Z,1.6
2023-05-14T10:48:37.425Z,1.6
2023-05-14T10:49:43.359Z,2.1
2023-05-14T10:50:39.626Z,1.5
2023-05-14T10:51:40.313Z,1.4
2023-05-14T10:52:40.951Z,1.9
2023-05-14T10:53:41.561Z,1.3
2023-05-14T10:54:42.143Z,4.0
2023-05-14T10:55:42.750Z,2.0
2023-05-14T10:56:43.386Z,1.4
2023-05-14T10:57:43.982Z,1.6
2023-05-14T10:58:44.579Z,1.6
2023-05-14T10:59:45.183Z,2.8
2023-05-14T11:00:45.785Z,1.5
2023-05-14T11:01:46.405Z,2.6
2023-05-14T11:02:47.224Z,1.5
2023-05-14T11:03:47.856Z,3.8
2023-05-14T11:04:48.438Z,1.3
2023-05-14T11:05:49.062Z,1.4
2023-05-14T11:06:49.658Z,2.8
2023-05-14T11:07:50.259Z,1.7
2023-05-14T11:08:50.869Z,1.3
2023-05-14T11:09:51.465Z,1.6
2023-05-14T11:10:52.089Z,1.7
2023-05-14T11:11:52.694Z,1.8
2023-05-14T11:12:53.299Z,1.7
2023-05-14T11:13:53.908Z,1.9
2023-05-14T11:14:54.503Z,1.4
2023-05-14T11:15:55.106Z,1.7
2023-05-14T11:16:55.774Z,1.5
2023-05-14T11:17:56.507Z,1.7
2023-05-14T11:18:57.165Z,1.5
2023-05-14T11:19:57.775Z,1.7
2023-05-14T11:20:58.351Z,1.7
2023-05-14T11:21:58.959Z,1.5
2023-05-14T11:22:59.562Z,1.5
2023-05-14T11:24:00.178Z,2.2
2023-05-14T11:25:00.830Z,1.8
2023-05-14T11:26:01.451Z,1.6
2023-05-14T11:27:02.010Z,2.3
2023-05-14T11:28:02.614Z,1.5
2023-05-14T11:29:03.232Z,1.8
2023-05-14T11:30:03.827Z,1.6
2023-05-14T11:31:04.448Z,1.3
2023-05-14T11:32:05.098Z,1.8
2023-05-14T11:33:05.745Z,1.3
2023-05-14T11:34:06.321Z,1.8
2023-05-14T11:35:06.924Z,1.5
2023-05-14T11:36:07.552Z,1.5
2023-05-14T11:37:08.153Z,1.7
2023-05-14T11:38:09.372Z,2.5
2023-05-14T11:39:09.937Z,1.1
2023-05-14T11:40:10.534Z,1.4
2023-05-14T11:41:11.137Z,1.8
2023-05-14T11:42:11.758Z,1.4
2023-05-14T11:43:12.363Z,1.5
2023-05-14T11:44:12.967Z,1.2
2023-05-14T11:45:13.651Z,1.1
2023-05-14T11:46:14.249Z,1.5
2023-05-14T11:47:14.821Z,1.5
2023-05-14T11:48:15.497Z,1.4
2023-05-14T11:49:16.056Z,1.7
2023-05-14T11:50:16.721Z,1.2
2023-05-14T11:51:17.343Z,1.4
2023-05-14T11:52:17.897Z,1.3
2023-05-14T11:53:18.499Z,1.6
2023-05-14T11:54:19.105Z,2.0
2023-05-14T11:55:19.711Z,1.5
2023-05-14T11:56:20.311Z,5.6
2023-05-14T11:57:20.957Z,1.2
2023-05-14T11:58:21.527Z,2.9
2023-05-14T11:59:22.130Z,1.4
2023-05-14T12:00:22.930Z,2.4
2023-05-14T12:01:23.714Z,1.2
2023-05-14T12:02:24.365Z,1.3
2023-05-14T12:03:25.084Z,1.4
2023-05-14T12:04:25.911Z,2.6
2023-05-14T12:05:26.476Z,1.0
2023-05-14T12:06:27.082Z,1.0
2023-05-14T12:07:27.684Z,1.3
2023-05-14T12:08:28.284Z,1.6
2023-05-14T12:09:28.889Z,1.8
2023-05-14T12:10:29.492Z,2.4
2023-05-14T12:11:30.097Z,1.1
2023-05-14T12:12:30.701Z,1.3
2023-05-14T12:13:31.349Z,1.2
2023-05-14T12:14:31.910Z,2.3
2023-05-14T12:15:32.512Z,1.2
2023-05-14T12:16:33.986Z,1.2
2023-05-14T12:17:33.751Z,1.3
2023-05-14T12:18:34.425Z,1.3
2023-05-14T12:19:35.071Z,0.9
2023-05-14T12:20:35.675Z,1.2
2023-05-14T12:21:36.277Z,1.3
2023-05-14T12:22:37.196Z,1.4
2023-05-14T12:23:37.791Z,1.5
2023-05-14T12:24:38.417Z,1.4
2023-05-14T12:25:39.019Z,1.3
2023-05-14T12:26:39.642Z,1.3
2023-05-14T12:27:40.245Z,2.1
2023-05-14T12:28:40.858Z,1.4
2023-05-14T12:29:41.452Z,2.1
2023-05-14T12:30:42.057Z,1.1
2023-05-14T12:31:42.703Z,1.3
2023-05-14T12:32:43.296Z,1.2
2023-05-14T12:33:43.875Z,0.9
2023-05-14T12:34:44.476Z,1.5
2023-05-14T12:35:45.088Z,1.3
2023-05-14T12:36:45.694Z,1.5
2023-05-14T12:37:46.317Z,1.2
2023-05-14T12:38:46.890Z,1.3
2023-05-14T12:39:47.501Z,1.4
2023-05-14T12:40:48.104Z,1.0
2023-05-14T12:41:48.729Z,1.2
2023-05-14T12:42:49.329Z,1.3
2023-05-14T12:43:49.954Z,1.6
2023-05-14T12:44:50.566Z,1.1
2023-05-14T12:45:51.180Z,2.0
2023-05-14T12:46:51.847Z,2.0
2023-05-14T12:47:52.433Z,1.6
2023-05-14T12:48:53.450Z,1.3
2023-05-14T12:49:54.124Z,3.9
2023-05-14T12:50:54.783Z,1.3
2023-05-14T12:52:07.718Z,1.2
2023-05-14T12:52:55.995Z,1.4
2023-05-14T12:53:56.596Z,2.7
2023-05-14T12:54:57.201Z,2.8
2023-05-14T12:55:57.804Z,1.3
2023-05-14T12:56:58.418Z,1.2
2023-05-14T12:57:59.013Z,1.4
2023-05-14T12:58:59.616Z,1.6
2023-05-14T13:00:00.237Z,2.2
2023-05-14T13:01:00.930Z,1.2
2023-05-14T13:02:01.468Z,1.5
2023-05-14T13:03:02.149Z,2.3
2023-05-14T13:04:02.701Z,1.5
2023-05-14T13:05:03.287Z,2.0
2023-05-14T13:06:03.893Z,1.3
2023-05-14T13:07:04.497Z,1.3
2023-05-14T13:08:05.100Z,1.4
2023-05-14T13:09:05.706Z,1.7
2023-05-14T13:10:06.317Z,1.5
2023-05-14T13:11:06.932Z,1.8
2023-05-14T13:12:07.542Z,2.3
2023-05-14T13:13:08.158Z,1.8
2023-05-14T13:14:08.742Z,1.5
2023-05-14T13:15:09.343Z,1.3
2023-05-14T13:16:10.026Z,1.5
2023-05-14T13:17:10.593Z,1.4
2023-05-14T13:18:11.220Z,1.3
2023-05-14T13:19:11.928Z,1.3
2023-05-14T13:20:12.552Z,1.9
2023-05-14T13:21:13.179Z,6.3
2023-05-14T13:22:13.793Z,1.0
2023-05-14T13:23:14.415Z,2.3
2023-05-14T13:24:15.016Z,1.1
2023-05-14T13:25:15.627Z,1.3
2023-05-14T13:26:16.249Z,2.1
2023-05-14T13:27:16.857Z,1.2
2023-05-14T13:28:17.454Z,1.1
2023-05-14T13:29:18.073Z,2.2
2023-05-14T13:30:18.666Z,1.3
2023-05-14T13:31:19.354Z,1.2
2023-05-14T13:32:19.884Z,1.3
2023-05-14T13:33:20.492Z,1.2
2023-05-14T13:34:21.098Z,1.4
2023-05-14T13:35:21.880Z,1.6
2023-05-14T13:36:22.552Z,1.5
2023-05-14T13:37:23.154Z,1.3
2023-05-14T13:38:23.781Z,1.7
2023-05-14T13:39:24.404Z,1.4
2023-05-14T13:40:25.000Z,2.0
2023-05-14T13:41:25.597Z,1.4
2023-05-14T13:42:26.202Z,1.3
2023-05-14T13:43:26.806Z,1.5
2023-05-14T13:44:27.409Z,2.5
2023-05-14T13:45:28.012Z,1.8
2023-05-14T13:46:28.648Z,2.0
2023-05-14T13:47:29.262Z,2.3
2023-05-14T13:48:29.837Z,1.4
2023-05-14T13:49:30.444Z,1.8
2023-05-14T13:50:31.066Z,2.1
2023-05-14T13:51:31.689Z,1.9
2023-05-14T13:52:32.300Z,1.9
2023-05-14T13:53:32.921Z,2.0
2023-05-14T13:54:33.501Z,2.0